sensor_id;sensor_type;location;lat;lon;timestamp;P1;durP1;ratioP1;P2;durP2;ratioP2
55692;SDS011;41590;53.366;5.212;2022-11-21T00:00:52;23.55;;;17.27;;
55692;SDS011;41590;53.366;5.212;2022-11-21T00:03:20;19.95;;;16.20;;
55692;SDS011;41590;53.366;5.212;2022-11-21T00:05:48;22.08;;;15.98;;
55692;SDS011;41590;53.366;5.212;2022-11-21T00:11:19;24.73;;;17.10;;
55692;SDS011;41590;53.366;5.212;2022-11-21T00:13:55;23.63;;;16.95;;
55692;SDS011;41590;53.366;5.212;2022-11-21T00:16:38;24.45;;;16.70;;
55692;SDS011;41590;53.366;5.212;2022-11-21T00:22:08;23.88;;;16.95;;
55692;SDS011;41590;53.366;5.212;2022-11-21T00:24:38;27.23;;;17.35;;
55692;SDS011;41590;53.366;5.212;2022-11-21T00:27:20;26.65;;;18.35;;
55692;SDS011;41590;53.366;5.212;2022-11-21T00:29:47;24.92;;;18.40;;
55692;SDS011;41590;53.366;5.212;2022-11-21T00:32:13;24.55;;;18.35;;
55692;SDS011;41590;53.366;5.212;2022-11-21T00:34:41;29.38;;;19.38;;
55692;SDS011;41590;53.366;5.212;2022-11-21T00:37:09;27.92;;;19.92;;
55692;SDS011;41590;53.366;5.212;2022-11-21T00:45:50;29.23;;;19.42;;
55692;SDS011;41590;53.366;5.212;2022-11-21T00:48:25;31.00;;;19.98;;
55692;SDS011;41590;53.366;5.212;2022-11-21T00:56:41;28.45;;;19.38;;
55692;SDS011;41590;53.366;5.212;2022-11-21T01:02:00;27.55;;;19.50;;
55692;SDS011;41590;53.366;5.212;2022-11-21T01:04:33;27.77;;;19.08;;
55692;SDS011;41590;53.366;5.212;2022-11-21T01:09:51;26.58;;;19.60;;
55692;SDS011;41590;53.366;5.212;2022-11-21T01:15:14;25.52;;;18.23;;
55692;SDS011;41590;53.366;5.212;2022-11-21T01:17:58;30.08;;;20.15;;
55692;SDS011;41590;53.366;5.212;2022-11-21T01:20:38;27.88;;;18.35;;
55692;SDS011;41590;53.366;5.212;2022-11-21T01:25:34;26.17;;;19.42;;
55692;SDS011;41590;53.366;5.212;2022-11-21T01:28:17;29.05;;;19.83;;
55692;SDS011;41590;53.366;5.212;2022-11-21T01:30:45;27.63;;;19.65;;
55692;SDS011;41590;53.366;5.212;2022-11-21T01:33:26;28.60;;;19.10;;
55692;SDS011;41590;53.366;5.212;2022-11-21T01:48:37;28.77;;;20.20;;
55692;SDS011;41590;53.366;5.212;2022-11-21T01:57:40;33.15;;;18.70;;
55692;SDS011;41590;53.366;5.212;2022-11-21T02:00:18;29.13;;;20.08;;
55692;SDS011;41590;53.366;5.212;2022-11-21T02:05:26;26.65;;;19.13;;
55692;SDS011;41590;53.366;5.212;2022-11-21T02:08:04;30.73;;;20.45;;
55692;SDS011;41590;53.366;5.212;2022-11-21T02:26:26;28.63;;;18.80;;
55692;SDS011;41590;53.366;5.212;2022-11-21T02:34:06;30.13;;;20.42;;
55692;SDS011;41590;53.366;5.212;2022-11-21T02:39:28;31.77;;;20.00;;
55692;SDS011;41590;53.366;5.212;2022-11-21T02:42:09;33.80;;;20.70;;
55692;SDS011;41590;53.366;5.212;2022-11-21T02:48:12;35.55;;;21.13;;
55692;SDS011;41590;53.366;5.212;2022-11-21T02:50:48;36.03;;;23.25;;
55692;SDS011;41590;53.366;5.212;2022-11-21T02:56:06;37.72;;;22.30;;
55692;SDS011;41590;53.366;5.212;2022-11-21T02:58:35;37.05;;;22.33;;
55692;SDS011;41590;53.366;5.212;2022-11-21T03:01:14;36.22;;;23.02;;
55692;SDS011;41590;53.366;5.212;2022-11-21T03:07:20;41.00;;;24.20;;
55692;SDS011;41590;53.366;5.212;2022-11-21T03:09:50;39.20;;;23.40;;
55692;SDS011;41590;53.366;5.212;2022-11-21T03:12:28;40.80;;;24.88;;
55692;SDS011;41590;53.366;5.212;2022-11-21T03:14:57;43.38;;;24.50;;
55692;SDS011;41590;53.366;5.212;2022-11-21T03:17:41;47.65;;;26.83;;
55692;SDS011;41590;53.366;5.212;2022-11-21T03:28:46;49.67;;;27.90;;
55692;SDS011;41590;53.366;5.212;2022-11-21T03:31:18;45.22;;;24.70;;
55692;SDS011;41590;53.366;5.212;2022-11-21T03:49:57;41.72;;;24.85;;
55692;SDS011;41590;53.366;5.212;2022-11-21T03:52:41;46.53;;;26.40;;
55692;SDS011;41590;53.366;5.212;2022-11-21T03:58:37;50.88;;;27.70;;
55692;SDS011;41590;53.366;5.212;2022-11-21T04:06:20;47.50;;;28.48;;
55692;SDS011;41590;53.366;5.212;2022-11-21T04:08:53;44.05;;;27.67;;
55692;SDS011;41590;53.366;5.212;2022-11-21T04:21:44;42.05;;;25.85;;
55692;SDS011;41590;53.366;5.212;2022-11-21T04:26:57;48.08;;;28.63;;
55692;SDS011;41590;53.366;5.212;2022-11-21T04:29:41;52.80;;;29.77;;
55692;SDS011;41590;53.366;5.212;2022-11-21T04:41:13;44.28;;;25.90;;
55692;SDS011;41590;53.366;5.212;2022-11-21T04:46:31;45.65;;;27.83;;
55692;SDS011;41590;53.366;5.212;2022-11-21T04:49:02;44.13;;;26.40;;
55692;SDS011;41590;53.366;5.212;2022-11-21T04:51:34;46.78;;;27.58;;
55692;SDS011;41590;53.366;5.212;2022-11-21T04:56:49;44.58;;;27.92;;
55692;SDS011;41590;53.366;5.212;2022-11-21T04:59:15;41.15;;;25.35;;
55692;SDS011;41590;53.366;5.212;2022-11-21T05:01:46;42.15;;;26.33;;
55692;SDS011;41590;53.366;5.212;2022-11-21T05:07:03;46.35;;;26.08;;
55692;SDS011;41590;53.366;5.212;2022-11-21T05:09:30;44.53;;;26.08;;
55692;SDS011;41590;53.366;5.212;2022-11-21T05:18:43;32.90;;;19.08;;
55692;SDS011;41590;53.366;5.212;2022-11-21T05:21:17;32.75;;;19.52;;
55692;SDS011;41590;53.366;5.212;2022-11-21T05:26:16;32.85;;;20.27;;
55692;SDS011;41590;53.366;5.212;2022-11-21T05:31:29;34.30;;;19.75;;
55692;SDS011;41590;53.366;5.212;2022-11-21T05:33:59;28.73;;;17.17;;
55692;SDS011;41590;53.366;5.212;2022-11-21T05:36:40;29.20;;;17.40;;
55692;SDS011;41590;53.366;5.212;2022-11-21T05:44:56;23.30;;;15.55;;
55692;SDS011;41590;53.366;5.212;2022-11-21T05:47:33;22.95;;;15.25;;
55692;SDS011;41590;53.366;5.212;2022-11-21T05:50:00;25.10;;;16.20;;
55692;SDS011;41590;53.366;5.212;2022-11-21T05:52:27;25.25;;;15.82;;
55692;SDS011;41590;53.366;5.212;2022-11-21T05:54:56;27.77;;;15.68;;
55692;SDS011;41590;53.366;5.212;2022-11-21T05:57:22;26.45;;;16.60;;
55692;SDS011;41590;53.366;5.212;2022-11-21T05:59:51;27.67;;;17.40;;
55692;SDS011;41590;53.366;5.212;2022-11-21T06:05:30;33.25;;;19.92;;
55692;SDS011;41590;53.366;5.212;2022-11-21T06:16:00;27.63;;;17.65;;
55692;SDS011;41590;53.366;5.212;2022-11-21T06:18:36;32.22;;;20.10;;
55692;SDS011;41590;53.366;5.212;2022-11-21T06:21:07;29.00;;;19.05;;
55692;SDS011;41590;53.366;5.212;2022-11-21T06:23:38;29.98;;;19.15;;
55692;SDS011;41590;53.366;5.212;2022-11-21T06:26:06;30.10;;;17.63;;
55692;SDS011;41590;53.366;5.212;2022-11-21T06:31:15;32.15;;;19.60;;
55692;SDS011;41590;53.366;5.212;2022-11-21T06:53:50;33.83;;;20.95;;
55692;SDS011;41590;53.366;5.212;2022-11-21T06:56:21;31.05;;;19.02;;
55692;SDS011;41590;53.366;5.212;2022-11-21T06:58:49;30.70;;;18.73;;
55692;SDS011;41590;53.366;5.212;2022-11-21T07:04:01;29.58;;;19.13;;
55692;SDS011;41590;53.366;5.212;2022-11-21T07:06:29;30.95;;;19.23;;
55692;SDS011;41590;53.366;5.212;2022-11-21T07:11:47;45.88;;;28.02;;
55692;SDS011;41590;53.366;5.212;2022-11-21T07:19:37;30.88;;;19.75;;
55692;SDS011;41590;53.366;5.212;2022-11-21T07:22:05;28.70;;;18.52;;
55692;SDS011;41590;53.366;5.212;2022-11-21T07:27:24;31.83;;;18.85;;
55692;SDS011;41590;53.366;5.212;2022-11-21T07:32:35;33.88;;;19.92;;
55692;SDS011;41590;53.366;5.212;2022-11-21T07:38:03;39.33;;;21.50;;
55692;SDS011;41590;53.366;5.212;2022-11-21T07:40:38;40.33;;;21.70;;
55692;SDS011;41590;53.366;5.212;2022-11-21T07:46:15;40.30;;;21.85;;
55692;SDS011;41590;53.366;5.212;2022-11-21T07:48:48;33.92;;;20.13;;
55692;SDS011;41590;53.366;5.212;2022-11-21T07:51:23;35.03;;;17.83;;
55692;SDS011;41590;53.366;5.212;2022-11-21T07:53:49;30.27;;;17.52;;
55692;SDS011;41590;53.366;5.212;2022-11-21T07:56:17;34.30;;;18.95;;
55692;SDS011;41590;53.366;5.212;2022-11-21T07:58:45;30.88;;;17.85;;
55692;SDS011;41590;53.366;5.212;2022-11-21T08:01:10;36.42;;;18.30;;
55692;SDS011;41590;53.366;5.212;2022-11-21T08:03:36;31.95;;;18.83;;
55692;SDS011;41590;53.366;5.212;2022-11-21T08:06:03;34.10;;;18.50;;
55692;SDS011;41590;53.366;5.212;2022-11-21T08:08:32;38.30;;;19.75;;
55692;SDS011;41590;53.366;5.212;2022-11-21T08:11:02;41.30;;;20.63;;
55692;SDS011;41590;53.366;5.212;2022-11-21T08:16:03;25.35;;;15.32;;
55692;SDS011;41590;53.366;5.212;2022-11-21T08:18:39;32.15;;;18.00;;
55692;SDS011;41590;53.366;5.212;2022-11-21T08:23:59;28.85;;;17.55;;
55692;SDS011;41590;53.366;5.212;2022-11-21T08:26:24;26.15;;;14.05;;
55692;SDS011;41590;53.366;5.212;2022-11-21T08:29:01;28.90;;;17.42;;
55692;SDS011;41590;53.366;5.212;2022-11-21T08:31:37;33.08;;;18.73;;
55692;SDS011;41590;53.366;5.212;2022-11-21T08:34:10;32.90;;;18.23;;
55692;SDS011;41590;53.366;5.212;2022-11-21T08:39:15;33.35;;;17.98;;
55692;SDS011;41590;53.366;5.212;2022-11-21T08:41:40;34.58;;;16.70;;
55692;SDS011;41590;53.366;5.212;2022-11-21T08:47:02;26.73;;;15.98;;
55692;SDS011;41590;53.366;5.212;2022-11-21T08:49:28;30.83;;;16.77;;
55692;SDS011;41590;53.366;5.212;2022-11-21T08:51:54;31.35;;;17.00;;
55692;SDS011;41590;53.366;5.212;2022-11-21T08:54:22;34.63;;;17.77;;
55692;SDS011;41590;53.366;5.212;2022-11-21T08:59:29;32.20;;;17.50;;
55692;SDS011;41590;53.366;5.212;2022-11-21T09:01:57;33.03;;;17.23;;
55692;SDS011;41590;53.366;5.212;2022-11-21T09:04:30;35.33;;;17.15;;
55692;SDS011;41590;53.366;5.212;2022-11-21T09:06:58;33.72;;;17.80;;
55692;SDS011;41590;53.366;5.212;2022-11-21T09:09:25;31.35;;;16.17;;
55692;SDS011;41590;53.366;5.212;2022-11-21T09:11:57;34.92;;;17.90;;
55692;SDS011;41590;53.366;5.212;2022-11-21T09:14:26;36.25;;;18.60;;
55692;SDS011;41590;53.366;5.212;2022-11-21T09:20:03;32.45;;;16.95;;
55692;SDS011;41590;53.366;5.212;2022-11-21T09:22:30;31.98;;;16.98;;
55692;SDS011;41590;53.366;5.212;2022-11-21T09:24:57;28.42;;;16.05;;
55692;SDS011;41590;53.366;5.212;2022-11-21T09:27:24;29.05;;;16.30;;
55692;SDS011;41590;53.366;5.212;2022-11-21T09:29:50;32.45;;;18.15;;
55692;SDS011;41590;53.366;5.212;2022-11-21T09:32:18;33.25;;;18.70;;
55692;SDS011;41590;53.366;5.212;2022-11-21T09:34:45;35.75;;;18.13;;
55692;SDS011;41590;53.366;5.212;2022-11-21T09:37:12;32.92;;;17.50;;
55692;SDS011;41590;53.366;5.212;2022-11-21T09:39:39;29.45;;;17.45;;
55692;SDS011;41590;53.366;5.212;2022-11-21T09:45:30;33.92;;;18.90;;
55692;SDS011;41590;53.366;5.212;2022-11-21T09:48:09;35.33;;;19.75;;
55692;SDS011;41590;53.366;5.212;2022-11-21T09:50:41;37.80;;;20.42;;
55692;SDS011;41590;53.366;5.212;2022-11-21T09:53:14;39.78;;;21.35;;
55692;SDS011;41590;53.366;5.212;2022-11-21T09:58:29;38.03;;;21.27;;
55692;SDS011;41590;53.366;5.212;2022-11-21T10:01:03;41.38;;;21.67;;
55692;SDS011;41590;53.366;5.212;2022-11-21T10:03:30;39.45;;;21.40;;
55692;SDS011;41590;53.366;5.212;2022-11-21T10:06:16;41.55;;;20.58;;
55692;SDS011;41590;53.366;5.212;2022-11-21T10:29:51;34.13;;;20.05;;
55692;SDS011;41590;53.366;5.212;2022-11-21T10:34:55;39.47;;;22.60;;
55692;SDS011;41590;53.366;5.212;2022-11-21T10:40:07;30.65;;;18.90;;
55692;SDS011;41590;53.366;5.212;2022-11-21T10:48:15;28.58;;;16.80;;
55692;SDS011;41590;53.366;5.212;2022-11-21T10:53:25;27.65;;;17.38;;
55692;SDS011;41590;53.366;5.212;2022-11-21T10:56:20;30.65;;;17.75;;
55692;SDS011;41590;53.366;5.212;2022-11-21T10:58:48;36.97;;;18.90;;
55692;SDS011;41590;53.366;5.212;2022-11-21T11:04:04;35.75;;;19.50;;
55692;SDS011;41590;53.366;5.212;2022-11-21T11:06:33;30.45;;;18.08;;
55692;SDS011;41590;53.366;5.212;2022-11-21T11:09:00;32.63;;;18.63;;
55692;SDS011;41590;53.366;5.212;2022-11-21T11:11:44;32.50;;;19.60;;
55692;SDS011;41590;53.366;5.212;2022-11-21T11:16:55;28.13;;;16.88;;
55692;SDS011;41590;53.366;5.212;2022-11-21T11:19:25;29.60;;;18.05;;
55692;SDS011;41590;53.366;5.212;2022-11-21T11:21:55;27.30;;;17.00;;
55692;SDS011;41590;53.366;5.212;2022-11-21T11:24:22;28.10;;;17.77;;
55692;SDS011;41590;53.366;5.212;2022-11-21T11:26:59;29.27;;;18.13;;
55692;SDS011;41590;53.366;5.212;2022-11-21T11:29:33;26.40;;;17.80;;
55692;SDS011;41590;53.366;5.212;2022-11-21T11:32:16;28.25;;;18.27;;
55692;SDS011;41590;53.366;5.212;2022-11-21T11:40:24;32.30;;;19.13;;
55692;SDS011;41590;53.366;5.212;2022-11-21T11:43:05;30.65;;;19.85;;
55692;SDS011;41590;53.366;5.212;2022-11-21T11:49:04;29.95;;;18.55;;
55692;SDS011;41590;53.366;5.212;2022-11-21T11:52:26;29.45;;;18.77;;
55692;SDS011;41590;53.366;5.212;2022-11-21T11:57:30;34.53;;;20.25;;
55692;SDS011;41590;53.366;5.212;2022-11-21T12:00:24;32.92;;;20.88;;
55692;SDS011;41590;53.366;5.212;2022-11-21T12:02:59;37.58;;;20.65;;
55692;SDS011;41590;53.366;5.212;2022-11-21T12:05:35;37.55;;;21.50;;
55692;SDS011;41590;53.366;5.212;2022-11-21T12:08:13;38.13;;;21.67;;
55692;SDS011;41590;53.366;5.212;2022-11-21T12:10:48;37.20;;;21.77;;
55692;SDS011;41590;53.366;5.212;2022-11-21T12:14:40;40.50;;;22.85;;
55692;SDS011;41590;53.366;5.212;2022-11-21T12:23:04;37.85;;;22.52;;
55692;SDS011;41590;53.366;5.212;2022-11-21T12:25:39;37.75;;;22.40;;
55692;SDS011;41590;53.366;5.212;2022-11-21T12:28:21;39.10;;;22.65;;
55692;SDS011;41590;53.366;5.212;2022-11-21T12:40:11;36.30;;;21.52;;
55692;SDS011;41590;53.366;5.212;2022-11-21T12:46:01;30.83;;;17.55;;
55692;SDS011;41590;53.366;5.212;2022-11-21T12:49:02;36.92;;;22.33;;
55692;SDS011;41590;53.366;5.212;2022-11-21T12:52:13;39.88;;;22.40;;
55692;SDS011;41590;53.366;5.212;2022-11-21T12:55:29;38.42;;;21.83;;
55692;SDS011;41590;53.366;5.212;2022-11-21T12:58:05;35.35;;;19.48;;
55692;SDS011;41590;53.366;5.212;2022-11-21T13:00:46;45.67;;;24.70;;
55692;SDS011;41590;53.366;5.212;2022-11-21T13:06:37;55.58;;;29.15;;
55692;SDS011;41590;53.366;5.212;2022-11-21T13:09:08;53.60;;;27.83;;
55692;SDS011;41590;53.366;5.212;2022-11-21T13:22:57;54.25;;;27.25;;
55692;SDS011;41590;53.366;5.212;2022-11-21T13:36:04;57.67;;;27.35;;
55692;SDS011;41590;53.366;5.212;2022-11-21T13:47:02;60.35;;;27.10;;
55692;SDS011;41590;53.366;5.212;2022-11-21T13:49:49;65.15;;;29.52;;
55692;SDS011;41590;53.366;5.212;2022-11-21T13:52:34;83.70;;;32.15;;
55692;SDS011;41590;53.366;5.212;2022-11-21T14:03:21;91.32;;;31.38;;
55692;SDS011;41590;53.366;5.212;2022-11-21T14:06:36;82.28;;;29.77;;
55692;SDS011;41590;53.366;5.212;2022-11-21T14:11:47;104.05;;;37.17;;
55692;SDS011;41590;53.366;5.212;2022-11-21T14:14:23;95.88;;;31.42;;
55692;SDS011;41590;53.366;5.212;2022-11-21T14:17:11;81.68;;;31.38;;
55692;SDS011;41590;53.366;5.212;2022-11-21T14:20:06;79.40;;;31.13;;
55692;SDS011;41590;53.366;5.212;2022-11-21T14:23:27;82.13;;;32.92;;
55692;SDS011;41590;53.366;5.212;2022-11-21T14:25:41;89.57;;;33.13;;
55692;SDS011;41590;53.366;5.212;2022-11-21T14:28:25;101.50;;;31.02;;
55692;SDS011;41590;53.366;5.212;2022-11-21T14:30:57;100.28;;;31.00;;
55692;SDS011;41590;53.366;5.212;2022-11-21T14:36:27;129.52;;;36.85;;
55692;SDS011;41590;53.366;5.212;2022-11-21T14:38:59;113.50;;;38.55;;
55692;SDS011;41590;53.366;5.212;2022-11-21T14:41:33;98.47;;;33.45;;
55692;SDS011;41590;53.366;5.212;2022-11-21T14:44:05;74.78;;;28.52;;
55692;SDS011;41590;53.366;5.212;2022-11-21T14:46:39;102.00;;;34.20;;
55692;SDS011;41590;53.366;5.212;2022-11-21T14:49:25;97.28;;;35.33;;
55692;SDS011;41590;53.366;5.212;2022-11-21T14:52:14;100.82;;;36.03;;
55692;SDS011;41590;53.366;5.212;2022-11-21T14:55:01;92.45;;;32.33;;
55692;SDS011;41590;53.366;5.212;2022-11-21T14:57:30;79.38;;;29.98;;
55692;SDS011;41590;53.366;5.212;2022-11-21T15:00:00;95.45;;;34.25;;
55692;SDS011;41590;53.366;5.212;2022-11-21T15:05:06;89.05;;;32.95;;
55692;SDS011;41590;53.366;5.212;2022-11-21T15:07:39;89.30;;;34.67;;
55692;SDS011;41590;53.366;5.212;2022-11-21T15:10:10;68.15;;;27.55;;
55692;SDS011;41590;53.366;5.212;2022-11-21T15:12:50;76.72;;;31.27;;
55692;SDS011;41590;53.366;5.212;2022-11-21T15:18:06;81.43;;;30.63;;
55692;SDS011;41590;53.366;5.212;2022-11-21T15:20:38;89.32;;;33.90;;
55692;SDS011;41590;53.366;5.212;2022-11-21T15:23:05;79.13;;;30.90;;
55692;SDS011;41590;53.366;5.212;2022-11-21T15:25:49;103.45;;;36.05;;
55692;SDS011;41590;53.366;5.212;2022-11-21T15:28:15;98.82;;;36.15;;
55692;SDS011;41590;53.366;5.212;2022-11-21T15:30:42;85.97;;;30.40;;
55692;SDS011;41590;53.366;5.212;2022-11-21T15:33:13;94.65;;;32.10;;
55692;SDS011;41590;53.366;5.212;2022-11-21T15:35:44;95.35;;;30.63;;
55692;SDS011;41590;53.366;5.212;2022-11-21T15:43:51;124.60;;;31.67;;
55692;SDS011;41590;53.366;5.212;2022-11-21T15:46:29;105.78;;;36.55;;
55692;SDS011;41590;53.366;5.212;2022-11-21T15:57:43;138.27;;;31.15;;
55692;SDS011;41590;53.366;5.212;2022-11-21T16:00:15;97.72;;;27.48;;
55692;SDS011;41590;53.366;5.212;2022-11-21T16:02:41;110.03;;;31.50;;
55692;SDS011;41590;53.366;5.212;2022-11-21T16:05:11;150.40;;;35.20;;
55692;SDS011;41590;53.366;5.212;2022-11-21T16:07:40;110.90;;;28.02;;
55692;SDS011;41590;53.366;5.212;2022-11-21T16:10:11;98.35;;;30.15;;
55692;SDS011;41590;53.366;5.212;2022-11-21T16:12:36;153.63;;;34.47;;
55692;SDS011;41590;53.366;5.212;2022-11-21T16:15:06;166.10;;;36.25;;
55692;SDS011;41590;53.366;5.212;2022-11-21T16:20:29;189.15;;;57.28;;
55692;SDS011;41590;53.366;5.212;2022-11-21T16:23:09;170.18;;;35.97;;
55692;SDS011;41590;53.366;5.212;2022-11-21T16:25:36;212.45;;;36.35;;
55692;SDS011;41590;53.366;5.212;2022-11-21T16:28:02;147.15;;;30.83;;
55692;SDS011;41590;53.366;5.212;2022-11-21T16:30:29;128.88;;;32.97;;
55692;SDS011;41590;53.366;5.212;2022-11-21T16:32:55;179.48;;;36.78;;
55692;SDS011;41590;53.366;5.212;2022-11-21T16:35:21;141.73;;;33.70;;
55692;SDS011;41590;53.366;5.212;2022-11-21T16:38:00;94.32;;;31.85;;
55692;SDS011;41590;53.366;5.212;2022-11-21T16:40:39;153.30;;;34.90;;
55692;SDS011;41590;53.366;5.212;2022-11-21T16:43:06;121.40;;;33.47;;
55692;SDS011;41590;53.366;5.212;2022-11-21T16:45:42;127.93;;;42.58;;
55692;SDS011;41590;53.366;5.212;2022-11-21T16:48:11;122.28;;;42.65;;
55692;SDS011;41590;53.366;5.212;2022-11-21T16:50:37;110.85;;;32.00;;
55692;SDS011;41590;53.366;5.212;2022-11-21T16:53:05;132.75;;;42.42;;
55692;SDS011;41590;53.366;5.212;2022-11-21T16:55:31;130.18;;;37.95;;
55692;SDS011;41590;53.366;5.212;2022-11-21T16:58:11;93.22;;;33.92;;
55692;SDS011;41590;53.366;5.212;2022-11-21T17:00:38;83.65;;;33.42;;
55692;SDS011;41590;53.366;5.212;2022-11-21T17:03:14;83.63;;;29.90;;
55692;SDS011;41590;53.366;5.212;2022-11-21T17:05:54;108.57;;;33.53;;
55692;SDS011;41590;53.366;5.212;2022-11-21T17:09:02;85.13;;;29.60;;
55692;SDS011;41590;53.366;5.212;2022-11-21T17:11:36;97.45;;;34.65;;
55692;SDS011;41590;53.366;5.212;2022-11-21T17:14:06;91.65;;;33.53;;
55692;SDS011;41590;53.366;5.212;2022-11-21T17:19:32;97.82;;;35.25;;
55692;SDS011;41590;53.366;5.212;2022-11-21T17:22:07;89.82;;;31.38;;
55692;SDS011;41590;53.366;5.212;2022-11-21T17:27:20;93.93;;;33.70;;
55692;SDS011;41590;53.366;5.212;2022-11-21T17:32:47;99.38;;;34.38;;
55692;SDS011;41590;53.366;5.212;2022-11-21T17:35:13;105.75;;;35.03;;
55692;SDS011;41590;53.366;5.212;2022-11-21T17:40:10;122.00;;;42.63;;
55692;SDS011;41590;53.366;5.212;2022-11-21T17:42:43;118.07;;;42.03;;
55692;SDS011;41590;53.366;5.212;2022-11-21T17:45:21;119.03;;;41.50;;
55692;SDS011;41590;53.366;5.212;2022-11-21T17:47:59;120.80;;;40.58;;
55692;SDS011;41590;53.366;5.212;2022-11-21T17:50:43;109.43;;;41.25;;
55692;SDS011;41590;53.366;5.212;2022-11-21T17:56:03;105.30;;;39.88;;
55692;SDS011;41590;53.366;5.212;2022-11-21T17:58:32;96.93;;;39.90;;
55692;SDS011;41590;53.366;5.212;2022-11-21T18:03:40;100.53;;;37.13;;
55692;SDS011;41590;53.366;5.212;2022-11-21T18:06:09;115.05;;;42.97;;
55692;SDS011;41590;53.366;5.212;2022-11-21T18:08:40;113.43;;;40.33;;
55692;SDS011;41590;53.366;5.212;2022-11-21T18:11:16;104.95;;;41.33;;
55692;SDS011;41590;53.366;5.212;2022-11-21T18:13:50;112.38;;;42.63;;
55692;SDS011;41590;53.366;5.212;2022-11-21T18:21:40;118.22;;;42.95;;
55692;SDS011;41590;53.366;5.212;2022-11-21T18:24:14;122.10;;;43.70;;
55692;SDS011;41590;53.366;5.212;2022-11-21T18:30:00;120.03;;;41.85;;
55692;SDS011;41590;53.366;5.212;2022-11-21T18:32:28;137.48;;;53.50;;
55692;SDS011;41590;53.366;5.212;2022-11-21T18:34:56;118.88;;;43.15;;
55692;SDS011;41590;53.366;5.212;2022-11-21T18:37:23;193.13;;;80.15;;
55692;SDS011;41590;53.366;5.212;2022-11-21T18:42:25;215.50;;;87.90;;
55692;SDS011;41590;53.366;5.212;2022-11-21T18:44:59;148.38;;;56.92;;
55692;SDS011;41590;53.366;5.212;2022-11-21T18:47:43;126.47;;;52.17;;
55692;SDS011;41590;53.366;5.212;2022-11-21T18:53:29;121.40;;;43.10;;
55692;SDS011;41590;53.366;5.212;2022-11-21T18:56:04;97.93;;;37.28;;
55692;SDS011;41590;53.366;5.212;2022-11-21T19:02:34;107.90;;;39.97;;
55692;SDS011;41590;53.366;5.212;2022-11-21T19:11:36;92.35;;;37.88;;
55692;SDS011;41590;53.366;5.212;2022-11-21T19:14:06;89.47;;;34.60;;
55692;SDS011;41590;53.366;5.212;2022-11-21T19:16:46;97.68;;;38.30;;
55692;SDS011;41590;53.366;5.212;2022-11-21T19:32:51;104.47;;;38.78;;
55692;SDS011;41590;53.366;5.212;2022-11-21T19:38:03;107.05;;;39.65;;
55692;SDS011;41590;53.366;5.212;2022-11-21T19:43:59;116.53;;;42.28;;
55692;SDS011;41590;53.366;5.212;2022-11-21T19:52:34;160.85;;;49.75;;
55692;SDS011;41590;53.366;5.212;2022-11-21T19:57:59;143.68;;;48.42;;
55692;SDS011;41590;53.366;5.212;2022-11-21T20:00:34;182.48;;;64.53;;
55692;SDS011;41590;53.366;5.212;2022-11-21T20:06:07;149.07;;;52.60;;
55692;SDS011;41590;53.366;5.212;2022-11-21T20:08:58;136.85;;;53.65;;
55692;SDS011;41590;53.366;5.212;2022-11-21T20:11:37;155.30;;;52.33;;
55692;SDS011;41590;53.366;5.212;2022-11-21T20:14:14;170.55;;;54.47;;
55692;SDS011;41590;53.366;5.212;2022-11-21T20:16:42;164.68;;;53.78;;
55692;SDS011;41590;53.366;5.212;2022-11-21T20:19:14;168.85;;;62.58;;
55692;SDS011;41590;53.366;5.212;2022-11-21T20:24:18;156.48;;;53.58;;
55692;SDS011;41590;53.366;5.212;2022-11-21T20:26:49;169.40;;;57.25;;
55692;SDS011;41590;53.366;5.212;2022-11-21T20:29:18;154.10;;;52.50;;
55692;SDS011;41590;53.366;5.212;2022-11-21T20:42:32;137.57;;;50.88;;
55692;SDS011;41590;53.366;5.212;2022-11-21T20:44:58;168.80;;;65.88;;
55692;SDS011;41590;53.366;5.212;2022-11-21T20:47:30;158.98;;;57.10;;
55692;SDS011;41590;53.366;5.212;2022-11-21T20:52:49;161.60;;;52.55;;
55692;SDS011;41590;53.366;5.212;2022-11-21T20:55:34;160.35;;;57.67;;
55692;SDS011;41590;53.366;5.212;2022-11-21T20:58:02;165.18;;;52.85;;
55692;SDS011;41590;53.366;5.212;2022-11-21T21:00:30;134.18;;;48.03;;
55692;SDS011;41590;53.366;5.212;2022-11-21T21:05:43;147.43;;;48.58;;
55692;SDS011;41590;53.366;5.212;2022-11-21T21:08:08;122.45;;;39.55;;
55692;SDS011;41590;53.366;5.212;2022-11-21T21:10:34;152.68;;;49.53;;
55692;SDS011;41590;53.366;5.212;2022-11-21T21:13:01;155.40;;;49.63;;
55692;SDS011;41590;53.366;5.212;2022-11-21T21:15:27;136.93;;;48.53;;
55692;SDS011;41590;53.366;5.212;2022-11-21T21:17:53;149.40;;;48.58;;
55692;SDS011;41590;53.366;5.212;2022-11-21T21:20:18;126.00;;;46.17;;
55692;SDS011;41590;53.366;5.212;2022-11-21T21:22:53;144.25;;;45.42;;
55692;SDS011;41590;53.366;5.212;2022-11-21T21:27:52;132.95;;;45.17;;
55692;SDS011;41590;53.366;5.212;2022-11-21T21:30:24;111.82;;;39.47;;
55692;SDS011;41590;53.366;5.212;2022-11-21T21:32:52;94.60;;;35.88;;
55692;SDS011;41590;53.366;5.212;2022-11-21T21:35:24;164.38;;;62.13;;
55692;SDS011;41590;53.366;5.212;2022-11-21T21:37:51;101.90;;;36.57;;
55692;SDS011;41590;53.366;5.212;2022-11-21T21:40:17;194.70;;;76.53;;
55692;SDS011;41590;53.366;5.212;2022-11-21T21:42:44;181.98;;;67.93;;
55692;SDS011;41590;53.366;5.212;2022-11-21T21:45:17;170.77;;;66.22;;
55692;SDS011;41590;53.366;5.212;2022-11-21T21:47:44;136.60;;;57.65;;
55692;SDS011;41590;53.366;5.212;2022-11-21T21:50:10;133.70;;;47.55;;
55692;SDS011;41590;53.366;5.212;2022-11-21T21:52:45;101.50;;;39.03;;
55692;SDS011;41590;53.366;5.212;2022-11-21T21:55:10;124.75;;;45.00;;
55692;SDS011;41590;53.366;5.212;2022-11-21T22:00:33;113.80;;;42.65;;
55692;SDS011;41590;53.366;5.212;2022-11-21T22:05:30;119.30;;;41.03;;
55692;SDS011;41590;53.366;5.212;2022-11-21T22:08:02;117.65;;;45.47;;
55692;SDS011;41590;53.366;5.212;2022-11-21T22:10:28;110.20;;;39.97;;
55692;SDS011;41590;53.366;5.212;2022-11-21T22:12:59;101.00;;;38.45;;
55692;SDS011;41590;53.366;5.212;2022-11-21T22:15:29;97.18;;;35.42;;
55692;SDS011;41590;53.366;5.212;2022-11-21T22:20:29;93.18;;;37.53;;
55692;SDS011;41590;53.366;5.212;2022-11-21T22:22:55;98.95;;;34.78;;
55692;SDS011;41590;53.366;5.212;2022-11-21T22:25:24;98.75;;;38.72;;
55692;SDS011;41590;53.366;5.212;2022-11-21T22:27:50;99.35;;;38.35;;
55692;SDS011;41590;53.366;5.212;2022-11-21T22:30:16;114.68;;;41.88;;
55692;SDS011;41590;53.366;5.212;2022-11-21T22:32:45;95.72;;;38.03;;
55692;SDS011;41590;53.366;5.212;2022-11-21T22:35:13;106.10;;;38.83;;
55692;SDS011;41590;53.366;5.212;2022-11-21T22:37:39;101.45;;;36.15;;
55692;SDS011;41590;53.366;5.212;2022-11-21T22:40:04;96.22;;;34.97;;
55692;SDS011;41590;53.366;5.212;2022-11-21T22:42:33;102.00;;;38.13;;
55692;SDS011;41590;53.366;5.212;2022-11-21T22:45:02;98.47;;;36.63;;
55692;SDS011;41590;53.366;5.212;2022-11-21T22:47:30;87.53;;;32.85;;
55692;SDS011;41590;53.366;5.212;2022-11-21T22:50:01;108.93;;;36.95;;
55692;SDS011;41590;53.366;5.212;2022-11-21T22:52:32;92.35;;;36.65;;
55692;SDS011;41590;53.366;5.212;2022-11-21T22:54:57;72.32;;;29.35;;
55692;SDS011;41590;53.366;5.212;2022-11-21T22:57:24;103.28;;;36.22;;